Time;durP1;ratioP1;P1;durP2;ratioP2;P2;SDS_P1;SDS_P2;PMS_P1;PMS_P2;Temp;Humidity;BMP_temperature;BMP_pressure;BME280_temperature;BME280_humidity;BME280_pressure;Samples;Min_cycle;Max_cycle;Signal;HPM_P1;HPM_P2
2022/05/29 00:01:53;;;;;;;5.10;1.60;;;14.60;80.90;;;;;;5078036;28;20020;-82
2022/05/29 00:04:19;;;;;;;6.18;1.50;;;15.40;81.80;;;;;;5097198;28;20020;-81
2022/05/29 00:06:49;;;;;;;6.22;1.70;;;13.90;80.30;;;;;;5073370;28;20164;-80
2022/05/29 00:09:18;;;;;;;5.05;1.40;;;13.60;79.90;;;;;;5088246;28;20040;-80
2022/05/29 00:11:44;;;;;;;8.48;2.17;;;14.90;81.00;;;;;;5080781;28;20017;-80
2022/05/29 00:14:09;;;;;;;8.30;1.90;;;13.50;80.80;;;;;;5093668;28;20030;-81
2022/05/29 00:16:35;;;;;;;8.23;1.70;;;13.50;80.70;;;;;;5084824;28;20024;-83
2022/05/29 00:19:00;;;;;;;4.93;1.63;;;13.50;81.00;;;;;;5071116;28;20016;-82
2022/05/29 00:21:30;;;;;;;5.28;1.60;;;13.50;80.70;;;;;;5097543;28;20552;-83
2022/05/29 00:23:55;;;;;;;4.63;1.60;;;13.50;80.30;;;;;;5079715;28;20048;-81
2022/05/29 00:26:21;;;;;;;8.70;1.60;;;13.40;80.70;;;;;;5095878;28;20028;-81
2022/05/29 00:28:47;;;;;;;7.80;1.92;;;13.40;80.90;;;;;;5083127;28;20032;-82
2022/05/29 00:31:13;;;;;;;5.80;1.67;;;13.30;80.40;;;;;;5098461;28;20021;-82
2022/05/29 00:33:40;;;;;;;4.00;1.60;;;15.60;82.10;;;;;;5099725;28;20027;-82
2022/05/29 00:36:08;;;;;;;6.88;1.75;;;15.70;82.60;;;;;;5096736;28;20020;-84
2022/05/29 00:38:39;;;;;;;5.78;1.55;;;13.20;81.30;;;;;;5086564;28;20031;-82
2022/05/29 00:41:22;;;;;;;5.93;1.85;;;13.20;81.50;;;;;;5096557;28;20050;-82
2022/05/29 00:44:19;;;;;;;6.60;1.60;;;13.30;81.10;;;;;;5092990;28;20059;-81
2022/05/29 00:47:12;;;;;;;7.13;1.80;;;13.20;81.30;;;;;;5090874;28;20047;-83
2022/05/29 00:49:39;;;;;;;7.72;1.63;;;13.10;81.70;;;;;;5083585;28;20380;-81
2022/05/29 00:52:07;;;;;;;4.03;1.30;;;13.20;81.60;;;;;;5095102;28;20024;-81
2022/05/29 00:54:42;;;;;;;5.20;1.65;;;12.70;81.30;;;;;;5093915;28;20077;-81
2022/05/29 00:57:14;;;;;;;7.10;1.40;;;14.90;82.50;;;;;;5082535;28;20391;-81
2022/05/29 00:59:41;;;;;;;6.03;1.30;;;13.20;82.00;;;;;;5103459;28;20033;-83
2022/05/29 01:02:07;;;;;;;6.57;1.45;;;14.00;82.50;;;;;;5107934;28;20096;-84
2022/05/29 01:04:34;;;;;;;5.57;1.50;;;13.90;82.50;;;;;;5086918;28;20032;-83
2022/05/29 01:07:06;;;;;;;6.00;1.60;;;15.20;83.20;;;;;;5091069;28;20049;-84
2022/05/29 01:09:34;;;;;;;7.07;1.70;;;13.20;82.10;;;;;;5091686;28;20044;-83
2022/05/29 01:12:17;;;;;;;9.23;1.70;;;15.20;83.50;;;;;;5100137;28;20024;-83
2022/05/29 01:15:13;;;;;;;3.92;1.55;;;13.00;82.30;;;;;;5089557;28;20024;-81
2022/05/29 01:17:52;;;;;;;7.90;1.45;;;13.00;82.80;;;;;;5105041;28;20017;-84
2022/05/29 01:20:48;;;;;;;5.15;1.52;;;13.00;83.20;;;;;;5098350;28;20472;-80
2022/05/29 01:23:40;;;;;;;7.28;1.63;;;12.90;83.30;;;;;;5085674;28;20024;-84
2022/05/29 01:26:15;;;;;;;6.97;2.08;;;13.60;84.10;;;;;;5081910;28;20021;-82
2022/05/29 01:29:05;;;;;;;7.32;1.23;;;13.00;83.60;;;;;;5075421;28;20495;-82
2022/05/29 01:31:54;;;;;;;4.57;1.55;;;13.10;82.10;;;;;;5085349;28;20029;-81
2022/05/29 01:34:35;;;;;;;5.18;1.73;;;14.00;83.10;;;;;;5084270;28;20016;-81
2022/05/29 01:37:08;;;;;;;5.53;1.90;;;13.10;82.80;;;;;;5093494;28;20013;-82
2022/05/29 01:40:08;;;;;;;6.40;1.65;;;13.50;83.70;;;;;;5078896;28;20039;-83
2022/05/29 01:42:42;;;;;;;5.97;1.52;;;13.00;83.30;;;;;;5102030;28;20163;-83
2022/05/29 01:45:33;;;;;;;7.05;1.35;;;12.90;83.40;;;;;;5096747;28;20032;-81
2022/05/29 01:48:13;;;;;;;8.05;1.65;;;12.90;82.70;;;;;;5102404;28;20020;-81
2022/05/29 01:50:50;;;;;;;6.07;2.08;;;12.80;83.10;;;;;;5105346;28;20030;-81
2022/05/29 01:53:23;;;;;;;7.30;1.50;;;15.50;84.70;;;;;;5097992;28;20024;-83
2022/05/29 01:55:57;;;;;;;4.68;1.52;;;14.50;84.10;;;;;;5097016;28;20016;-82
2022/05/29 01:58:30;;;;;;;4.80;1.20;;;12.80;82.60;;;;;;5105116;28;20012;-82
2022/05/29 02:01:00;;;;;;;6.38;1.83;;;13.50;83.30;;;;;;5085575;28;20110;-81
2022/05/29 02:03:34;;;;;;;12.02;2.15;;;12.80;82.30;;;;;;5086673;28;20127;-84
2022/05/29 02:06:10;;;;;;;6.85;1.40;;;13.80;83.30;;;;;;5097279;28;20576;-82
2022/05/29 02:08:56;;;;;;;5.78;1.67;;;12.80;83.20;;;;;;5079479;28;20192;-81
2022/05/29 02:11:27;;;;;;;6.00;2.08;;;12.80;82.80;;;;;;5086636;28;20032;-84
2022/05/29 02:14:06;;;;;;;6.63;1.63;;;12.80;83.20;;;;;;5092976;28;20012;-83
2022/05/29 02:16:49;;;;;;;10.55;1.60;;;12.80;83.50;;;;;;5112231;28;20026;-81
2022/05/29 02:19:39;;;;;;;5.88;1.60;;;12.70;83.10;;;;;;5089668;28;20051;-81
2022/05/29 02:22:08;;;;;;;8.95;1.40;;;12.70;83.00;;;;;;5081564;28;20035;-80
2022/05/29 02:24:49;;;;;;;9.25;1.70;;;12.70;82.90;;;;;;5101644;28;20025;-81
2022/05/29 02:27:28;;;;;;;6.00;1.52;;;15.20;84.80;;;;;;5098148;28;20027;-83
2022/05/29 02:29:55;;;;;;;9.98;2.97;;;15.50;85.30;;;;;;5099594;28;20032;-84
2022/05/29 02:32:45;;;;;;;6.78;1.58;;;13.20;84.20;;;;;;5090124;28;20020;-81
2022/05/29 02:35:21;;;;;;;7.82;1.60;;;12.60;84.00;;;;;;5070438;28;20291;-80
2022/05/29 02:37:57;;;;;;;9.02;1.50;;;12.60;84.40;;;;;;5083556;28;20027;-82
2022/05/29 02:40:40;;;;;;;8.30;1.70;;;12.50;84.40;;;;;;5101074;28;20024;-83
2022/05/29 02:43:39;;;;;;;6.75;1.65;;;12.50;84.70;;;;;;5102468;28;20036;-81
2022/05/29 02:46:29;;;;;;;5.47;1.60;;;12.50;84.90;;;;;;5080074;28;20115;-83
2022/05/29 02:49:27;;;;;;;7.35;1.90;;;12.40;85.10;;;;;;5100328;28;20032;-82
2022/05/29 02:51:58;;;;;;;6.53;1.48;;;12.40;85.20;;;;;;5032945;28;20146;-82
2022/05/29 02:54:26;;;;;;;7.68;2.00;;;12.40;85.50;;;;;;5099388;28;20107;-82
2022/05/29 02:56:56;;;;;;;5.70;1.80;;;13.90;86.50;;;;;;5099893;28;20023;-82
2022/05/29 02:59:25;;;;;;;9.50;1.75;;;12.40;85.70;;;;;;5084532;28;20167;-81
2022/05/29 03:02:09;;;;;;;7.90;1.63;;;16.20;87.90;;;;;;5076843;28;20111;-83
2022/05/29 03:04:59;;;;;;;6.97;1.40;;;12.40;85.90;;;;;;5091409;28;20028;-83
2022/05/29 03:07:39;;;;;;;8.40;1.27;;;12.20;86.00;;;;;;5080459;28;20031;-84
2022/05/29 03:10:23;;;;;;;8.80;1.80;;;12.40;86.10;;;;;;5073682;28;20859;-82
2022/05/29 03:12:56;;;;;;;6.00;1.58;;;12.30;86.20;;;;;;5101354;28;20029;-83
2022/05/29 03:15:41;;;;;;;5.38;1.50;;;12.30;86.60;;;;;;5087088;28;20020;-82
2022/05/29 03:18:13;;;;;;;5.63;1.63;;;12.30;86.10;;;;;;5092021;28;20059;-80
2022/05/29 03:20:51;;;;;;;10.30;1.90;;;12.30;86.40;;;;;;5073180;28;20034;-82
2022/05/29 03:23:32;;;;;;;10.00;1.60;;;12.20;86.70;;;;;;5072288;28;20048;-81
2022/05/29 03:26:03;;;;;;;9.40;1.92;;;12.10;87.10;;;;;;5100510;28;20044;-82
2022/05/29 03:28:40;;;;;;;9.55;3.97;;;12.10;87.30;;;;;;5076294;28;20122;-81
2022/05/29 03:31:14;;;;;;;5.55;1.58;;;12.00;87.40;;;;;;5076044;28;20166;-82
2022/05/29 03:33:40;;;;;;;5.63;1.70;;;12.00;88.00;;;;;;5076331;28;20036;-82
2022/05/29 03:36:09;;;;;;;6.53;1.80;;;12.00;88.20;;;;;;5081772;28;20551;-82
2022/05/29 03:38:34;;;;;;;8.38;1.90;;;15.00;90.00;;;;;;5095231;28;20036;-83
2022/05/29 03:41:07;;;;;;;7.07;1.67;;;11.80;89.00;;;;;;5079579;28;20099;-83
2022/05/29 03:43:33;;;;;;;13.82;2.13;;;12.00;88.40;;;;;;5090254;28;20017;-83
2022/05/29 03:45:58;;;;;;;7.60;1.60;;;12.10;87.90;;;;;;5077154;28;20086;-86
2022/05/29 03:48:24;;;;;;;5.20;1.60;;;12.10;88.10;;;;;;5089581;28;20016;-85
2022/05/29 03:50:50;;;;;;;7.18;1.80;;;;;;;;;;5104343;28;20021;-85
2022/05/29 03:53:16;;;;;;;5.75;1.50;;;;;;;;;;5107238;28;20008;-85
2022/05/29 03:55:41;;;;;;;6.25;1.75;;;12.20;87.30;;;;;;5100283;28;20008;-86
2022/05/29 03:58:07;;;;;;;4.93;1.35;;;12.20;87.70;;;;;;5091344;28;20025;-82
2022/05/29 04:00:33;;;;;;;7.22;1.77;;;14.30;89.20;;;;;;5108786;28;20044;-84
2022/05/29 04:02:59;;;;;;;7.25;1.60;;;13.20;88.50;;;;;;5099213;28;20025;-82
2022/05/29 04:05:25;;;;;;;8.27;1.63;;;12.20;88.10;;;;;;5072395;28;20033;-84
2022/05/29 04:13:26;;;;;;;6.50;1.50;;;;;;;;;;5091261;28;20554;-84
2022/05/29 04:15:52;;;;;;;6.60;1.60;;;12.10;88.20;;;;;;5068722;28;20121;-84
2022/05/29 04:18:24;;;;;;;7.18;1.58;;;12.10;88.60;;;;;;5089566;28;20012;-83
2022/05/29 04:20:53;;;;;;;9.57;1.83;;;12.10;88.60;;;;;;5092477;28;20031;-82
2022/05/29 04:23:19;;;;;;;8.05;2.03;;;12.10;88.70;;;;;;5098716;28;20043;-83
2022/05/29 04:25:45;;;;;;;5.93;1.50;;;;;;;;;;5100702;28;20029;-84
2022/05/29 04:28:11;;;;;;;7.28;2.03;;;12.20;88.30;;;;;;5089437;28;20032;-83
2022/05/29 04:30:37;;;;;;;5.32;1.73;;;;;;;;;;5082075;28;20032;-81
2022/05/29 04:33:03;;;;;;;7.43;1.83;;;12.10;88.40;;;;;;5093124;28;20017;-83
2022/05/29 04:35:34;;;;;;;8.38;1.85;;;12.80;89.10;;;;;;5093247;28;20058;-82
2022/05/29 04:37:59;;;;;;;5.72;1.70;;;12.10;88.80;;;;;;5075009;28;20020;-83
2022/05/29 04:40:25;;;;;;;8.55;1.70;;;15.20;90.10;;;;;;5070943;28;20044;-81
2022/05/29 04:42:50;;;;;;;7.90;1.63;;;14.20;89.70;;;;;;5076880;28;20502;-81
2022/05/29 04:45:16;;;;;;;8.20;1.75;;;;;;;;;;5060310;28;20036;-81
2022/05/29 04:47:42;;;;;;;6.88;1.52;;;12.20;88.50;;;;;;5087798;28;20029;-83
2022/05/29 04:50:09;;;;;;;7.63;1.40;;;12.30;88.90;;;;;;5089909;28;20038;-82
2022/05/29 04:52:35;;;;;;;7.75;1.63;;;12.40;88.40;;;;;;5072952;28;20079;-85
2022/05/29 04:55:00;;;;;;;7.53;1.80;;;12.40;88.10;;;;;;5079616;28;20031;-85
2022/05/29 04:57:26;;;;;;;10.90;1.80;;;11.80;88.20;;;;;;5071742;28;20368;-86
2022/05/29 04:59:52;;;;;;;7.95;1.50;;;12.20;88.50;;;;;;5094618;28;20058;-82
2022/05/29 05:02:18;;;;;;;7.93;1.48;;;14.10;89.50;;;;;;5105261;28;20021;-82
2022/05/29 05:04:44;;;;;;;8.80;1.60;;;;;;;;;;5103234;28;20075;-82
2022/05/29 05:07:10;;;;;;;7.82;1.77;;;12.40;88.00;;;;;;5072626;28;20057;-83
2022/05/29 05:09:35;;;;;;;6.38;1.48;;;12.40;89.00;;;;;;5082995;28;20028;-81
2022/05/29 05:12:01;;;;;;;5.90;1.25;;;14.10;90.20;;;;;;5065624;28;20123;-80
2022/05/29 05:14:27;;;;;;;7.90;1.90;;;12.40;89.30;;;;;;5084119;28;20020;-79
2022/05/29 05:16:54;;;;;;;7.43;1.58;;;12.40;88.80;;;;;;5068878;28;20092;-82
2022/05/29 05:19:20;;;;;;;4.45;1.40;;;12.40;89.50;;;;;;5099718;28;20032;-82
2022/05/29 05:21:46;;;;;;;6.45;1.50;;;12.40;89.00;;;;;;5096134;28;20138;-82
2022/05/29 05:24:12;;;;;;;8.38;2.22;;;15.20;90.40;;;;;;5092541;28;20099;-81
2022/05/29 05:26:38;;;;;;;8.00;1.63;;;14.20;90.40;;;;;;5067916;28;20040;-81
2022/05/29 05:29:04;;;;;;;5.88;1.80;;;;;;;;;;5099917;28;20115;-80
2022/05/29 05:31:30;;;;;;;4.15;1.30;;;12.20;90.10;;;;;;5101641;28;20026;-83
2022/05/29 05:33:56;;;;;;;6.90;1.60;;;12.10;90.70;;;;;;5094994;28;20035;-79
2022/05/29 05:36:22;;;;;;;8.25;1.95;;;;;;;;;;5075636;28;20034;-82
2022/05/29 05:38:47;;;;;;;10.43;2.00;;;12.00;94.80;;;;;;5105078;28;20036;-81
2022/05/29 05:41:15;;;;;;;10.25;1.90;;;11.80;94.10;;;;;;5080200;28;20017;-82
2022/05/29 05:43:41;;;;;;;8.60;2.53;;;14.00;94.90;;;;;;5095706;28;20100;-85
2022/05/29 05:46:08;;;;;;;8.68;1.88;;;13.50;95.30;;;;;;5096122;28;20083;-80
2022/05/29 05:48:34;;;;;;;8.65;1.83;;;11.60;95.80;;;;;;5101198;28;20023;-81
2022/05/29 05:51:00;;;;;;;6.07;1.50;;;14.20;96.40;;;;;;5107685;28;20036;-83
2022/05/29 05:53:26;;;;;;;6.65;1.83;;;;;;;;;;5101990;28;20110;-80
2022/05/29 05:55:52;;;;;;;7.57;1.75;;;11.70;95.70;;;;;;5071486;28;20472;-81
2022/05/29 05:58:18;;;;;;;9.38;1.83;;;11.60;95.60;;;;;;5098019;28;20046;-82
2022/05/29 06:00:46;;;;;;;9.48;1.80;;;11.70;95.80;;;;;;5084874;28;20029;-82
2022/05/29 06:03:12;;;;;;;4.82;1.50;;;;;;;;;;5079633;28;20012;-79
2022/05/29 06:05:37;;;;;;;7.50;1.88;;;11.80;95.70;;;;;;5071145;28;20059;-81
2022/05/29 06:08:03;;;;;;;7.25;2.10;;;12.10;96.00;;;;;;5105773;28;20024;-82
2022/05/29 06:10:29;;;;;;;6.50;1.92;;;12.10;96.30;;;;;;5090871;28;20029;-86
2022/05/29 06:12:56;;;;;;;8.18;2.47;;;12.30;94.80;;;;;;5077042;28;20020;-82
2022/05/29 06:15:22;;;;;;;7.80;2.00;;;12.50;94.20;;;;;;5099371;28;20025;-83
2022/05/29 06:17:47;;;;;;;4.88;1.58;;;13.80;95.20;;;;;;5079803;28;20136;-82
2022/05/29 06:20:13;;;;;;;6.13;1.88;;;14.50;94.50;;;;;;5101183;28;20020;-82
2022/05/29 06:22:40;;;;;;;6.25;1.60;;;12.80;93.40;;;;;;5101672;28;20040;-83
2022/05/29 06:25:07;;;;;;;8.77;2.00;;;13.30;94.30;;;;;;5077895;28;20514;-84
2022/05/29 06:27:37;;;;;;;9.43;1.88;;;12.60;94.50;;;;;;5107889;28;20048;-83
2022/05/29 06:30:04;;;;;;;8.90;1.75;;;14.40;95.10;;;;;;5082377;28;20135;-82
2022/05/29 06:32:30;;;;;;;8.40;2.08;;;12.70;93.90;;;;;;5097104;28;20108;-84
2022/05/29 06:34:56;;;;;;;8.40;1.70;;;;;;;;;;5092641;28;20077;-82
2022/05/29 06:37:22;;;;;;;9.82;1.73;;;;;;;;;;5101449;28;20096;-83
2022/05/29 06:39:49;;;;;;;7.25;1.92;;;;;;;;;;5095811;28;20060;-84
2022/05/29 06:42:15;;;;;;;4.13;1.70;;;13.00;93.00;;;;;;5101127;28;20028;-83
2022/05/29 06:44:41;;;;;;;8.13;1.80;;;13.00;93.60;;;;;;5070550;28;20028;-81
2022/05/29 06:47:07;;;;;;;5.93;1.60;;;13.70;93.30;;;;;;5085049;28;20028;-82
2022/05/29 06:49:34;;;;;;;7.15;1.95;;;13.20;92.90;;;;;;5097685;28;20040;-83
2022/05/29 06:52:00;;;;;;;9.80;2.25;;;;;;;;;;5085480;28;20035;-81
2022/05/29 06:54:26;;;;;;;7.20;1.80;;;;;;;;;;5097707;28;20391;-80
2022/05/29 06:56:52;;;;;;;6.55;1.90;;;;;;;;;;5082430;28;20037;-84
2022/05/29 06:59:20;;;;;;;6.30;1.60;;;14.00;90.80;;;;;;5103121;28;20507;-81
2022/05/29 07:07:16;;;;;;;7.18;2.10;;;13.70;90.50;;;;;;5102753;28;20233;-84
2022/05/29 07:09:42;;;;;;;6.32;1.88;;;13.70;91.00;;;;;;5098838;28;20040;-82
2022/05/29 07:12:31;;;;;;;5.93;2.10;;;13.50;92.40;;;;;;5103524;28;20024;-82
2022/05/29 07:15:07;;;;;;;6.43;1.80;;;13.60;91.90;;;;;;5074920;28;20056;-82
2022/05/29 07:17:33;;;;;;;5.72;1.52;;;13.80;91.20;;;;;;5069652;28;20040;-83
2022/05/29 07:19:59;;;;;;;5.35;1.90;;;13.80;91.30;;;;;;5098080;28;20013;-82
2022/05/29 07:22:27;;;;;;;7.20;1.52;;;15.40;91.90;;;;;;5097230;28;20070;-83
2022/05/29 07:24:53;;;;;;;6.93;1.67;;;14.60;91.20;;;;;;5065101;28;20028;-79
2022/05/29 07:27:18;;;;;;;8.10;2.00;;;13.80;90.90;;;;;;5093723;28;20024;-82
2022/05/29 07:29:44;;;;;;;6.47;1.60;;;16.90;91.10;;;;;;5092253;28;20044;-83
2022/05/29 07:32:11;;;;;;;8.90;2.10;;;13.90;90.60;;;;;;5087659;28;20012;-82
2022/05/29 07:34:37;;;;;;;7.15;1.77;;;13.90;90.80;;;;;;5099288;28;20050;-83
2022/05/29 07:37:09;;;;;;;8.77;2.45;;;14.20;90.10;;;;;;5086805;28;20027;-85
2022/05/29 07:39:38;;;;;;;7.47;1.80;;;15.40;90.20;;;;;;5085587;28;20030;-86
2022/05/29 07:44:51;;;;;;;6.65;1.88;;;14.20;90.20;;;;;;5090792;28;20032;-83
2022/05/29 07:47:18;;;;;;;7.88;1.92;;;14.20;89.30;;;;;;5102011;28;20023;-83
2022/05/29 07:49:44;;;;;;;8.57;2.17;;;14.30;89.70;;;;;;5090493;28;20024;-82
2022/05/29 07:52:09;;;;;;;5.63;1.80;;;14.40;89.00;;;;;;5102208;28;20072;-82
2022/05/29 07:54:35;;;;;;;6.70;1.75;;;14.70;85.50;;;;;;5081788;28;20017;-78
2022/05/29 07:57:00;;;;;;;4.88;1.58;;;14.80;86.30;;;;;;5092401;28;20081;-83
2022/05/29 07:59:26;;;;;;;7.75;2.20;;;16.00;87.30;;;;;;5086156;28;20042;-84
2022/05/29 08:01:52;;;;;;;6.32;1.77;;;;;;;;;;5097069;28;20036;-83
2022/05/29 08:04:19;;;;;;;8.63;1.90;;;15.10;83.30;;;;;;5097428;28;20047;-85
2022/05/29 08:06:44;;;;;;;7.20;1.80;;;14.20;82.30;;;;;;5104058;28;20033;-83
2022/05/29 08:09:11;;;;;;;9.20;1.95;;;15.10;82.30;;;;;;5076467;28;20032;-84
2022/05/29 08:11:36;;;;;;;6.38;1.50;;;15.50;82.10;;;;;;5107546;28;20112;-82
2022/05/29 08:14:02;;;;;;;8.00;2.00;;;16.20;80.80;;;;;;5102365;28;20032;-84
2022/05/29 08:16:28;;;;;;;9.05;2.00;;;17.80;80.90;;;;;;5108513;28;20019;-83
2022/05/29 08:18:54;;;;;;;8.15;1.98;;;15.80;80.90;;;;;;5092874;28;20028;-84
2022/05/29 08:21:20;;;;;;;5.65;1.92;;;15.60;80.60;;;;;;5115491;28;20110;-84
2022/05/29 08:31:59;;;;;;;8.48;3.22;;;14.90;81.90;;;;;;5098409;28;20047;-81
2022/05/29 08:34:24;;;;;;;7.43;2.20;;;14.90;82.60;;;;;;5090075;28;20024;-82
2022/05/29 08:36:50;;;;;;;7.63;1.88;;;17.40;83.90;;;;;;5087639;28;20028;-85
2022/05/29 08:39:15;;;;;;;4.70;1.60;;;16.20;83.50;;;;;;5087700;28;20008;-84
2022/05/29 08:41:48;;;;;;;5.10;1.60;;;15.20;81.10;;;;;;5099473;28;20063;-84
2022/05/29 08:44:34;;;;;;;4.75;1.70;;;15.10;81.50;;;;;;5102685;28;20073;-82
2022/05/29 08:47:02;;;;;;;7.25;1.70;;;18.10;81.60;;;;;;5092888;28;20032;-84
2022/05/29 08:49:31;;;;;;;3.53;1.60;;;15.80;78.10;;;;;;5085885;28;20025;-82
2022/05/29 08:52:34;;;;;;;7.25;2.00;;;17.80;79.70;;;;;;5109727;28;20088;-83
2022/05/29 08:55:14;;;;;;;7.07;2.17;;;16.10;77.70;;;;;;5108165;28;20021;-84
2022/05/29 08:57:54;;;;;;;4.80;1.63;;;16.40;76.80;;;;;;5092456;28;20025;-86
2022/05/29 09:00:45;;;;;;;4.70;2.00;;;16.60;74.00;;;;;;5083760;28;20096;-85
2022/05/29 09:03:44;;;;;;;7.85;2.03;;;16.50;75.20;;;;;;5111427;28;20027;-84
2022/05/29 09:06:15;;;;;;;6.47;1.45;;;17.40;76.20;;;;;;5096090;28;20019;-84
2022/05/29 09:08:53;;;;;;;9.13;1.80;;;16.00;74.50;;;;;;5110964;28;20029;-84
2022/05/29 09:11:36;;;;;;;9.70;1.88;;;15.90;74.60;;;;;;5108817;28;20039;-84
2022/05/29 09:14:05;;;;;;;5.53;1.25;;;16.40;71.70;;;;;;5106722;28;20017;-84
2022/05/29 09:16:35;;;;;;;4.05;1.48;;;16.40;72.20;;;;;;5079669;28;20032;-83
2022/05/29 09:19:19;;;;;;;7.70;1.70;;;18.80;71.80;;;;;;5103055;28;20020;-85
2022/05/29 09:21:56;;;;;;;4.80;1.25;;;16.30;73.10;;;;;;5083682;28;20028;-85
2022/05/29 09:24:41;;;;;;;3.15;1.40;;;16.30;73.70;;;;;;5099942;28;20021;-83
2022/05/29 09:27:09;;;;;;;5.53;1.33;;;16.20;74.80;;;;;;5099722;28;20032;-84
2022/05/29 09:29:36;;;;;;;6.35;1.60;;;16.20;75.80;;;;;;5086036;28;20088;-85
2022/05/29 09:32:09;;;;;;;4.20;1.40;;;16.00;74.10;;;;;;5086295;28;20030;-87
2022/05/29 09:34:34;;;;;;;7.97;1.50;;;15.90;74.60;;;;;;5104033;28;20046;-81
2022/05/29 09:37:00;;;;;;;5.57;1.30;;;;;;;;;;5094781;28;20543;-84
2022/05/29 09:39:55;;;;;;;3.65;1.20;;;15.80;74.20;;;;;;5081508;28;20031;-85
2022/05/29 09:42:34;;;;;;;4.43;1.45;;;15.80;73.80;;;;;;5088495;28;20047;-83
2022/05/29 09:45:09;;;;;;;4.68;1.38;;;16.50;72.20;;;;;;5084876;28;20038;-83
2022/05/29 09:50:20;;;;;;;6.25;1.40;;;;;;;;;;5099112;28;20088;-83
2022/05/29 09:52:45;;;;;;;4.68;1.25;;;16.50;71.60;;;;;;5097706;28;20399;-82
2022/05/29 09:55:28;;;;;;;5.18;1.85;;;19.20;72.70;;;;;;5087536;28;20031;-83
2022/05/29 09:58:24;;;;;;;5.03;1.40;;;17.40;68.60;;;;;;5068825;28;20020;-82
2022/05/29 10:01:03;;;;;;;4.55;1.15;;;17.60;69.50;;;;;;5092650;28;20139;-81
2022/05/29 10:03:51;;;;;;;4.00;1.37;;;17.00;68.90;;;;;;5092652;28;20024;-83
2022/05/29 10:06:41;;;;;;;3.47;1.73;;;17.00;69.70;;;;;;5094179;28;20032;-85
2022/05/29 10:09:21;;;;;;;2.53;1.00;;;19.00;70.00;;;;;;5107855;28;20028;-82
2022/05/29 10:12:14;;;;;;;4.20;1.10;;;16.70;66.60;;;;;;5085210;28;20048;-84
2022/05/29 10:14:42;;;;;;;5.80;1.88;;;16.30;63.60;;;;;;5098688;28;20026;-79
2022/05/29 10:17:15;;;;;;;7.60;1.35;;;16.40;64.10;;;;;;5098745;28;20058;-82
2022/05/29 10:19:44;;;;;;;4.40;1.20;;;16.30;65.30;;;;;;5104477;28;20025;-84
2022/05/29 10:22:31;;;;;;;6.23;1.13;;;16.30;65.90;;;;;;5074088;28;20166;-82
2022/05/29 10:24:57;;;;;;;4.00;1.15;;;16.60;64.20;;;;;;5094943;28;20036;-85
2022/05/29 10:27:34;;;;;;;3.28;1.25;;;16.60;64.80;;;;;;5097878;28;20055;-84
2022/05/29 10:30:06;;;;;;;2.50;1.20;;;17.00;63.90;;;;;;5090604;28;20092;-84
2022/05/29 10:32:35;;;;;;;3.85;1.20;;;17.30;63.50;;;;;;5097271;28;20032;-85
2022/05/29 10:35:20;;;;;;;4.78;1.38;;;17.70;64.00;;;;;;5102208;28;20022;-84
2022/05/29 10:37:46;;;;;;;3.50;1.20;;;;;;;;;;5095880;28;20042;-84
2022/05/29 10:40:31;;;;;;;4.70;1.42;;;18.00;64.00;;;;;;5091373;28;20076;-82
2022/05/29 10:43:03;;;;;;;3.70;1.58;;;18.50;64.90;;;;;;5091105;28;20036;-86
2022/05/29 10:46:02;;;;;;;4.32;1.20;;;18.00;62.40;;;;;;5094082;28;20016;-84
2022/05/29 10:49:25;;;;;;;3.05;1.30;;;18.00;64.20;;;;;;5101455;28;20047;-80
2022/05/29 10:52:25;;;;;;;3.72;1.50;;;17.40;62.20;;;;;;5102269;28;20035;-84
2022/05/29 10:55:03;;;;;;;;;;;17.30;62.30;;;;;;5096613;28;20079;-83
2022/05/29 10:57:40;;;;;;;3.58;1.20;;;17.50;60.80;;;;;;5102946;28;19904;-84
2022/05/29 11:00:21;;;;;;;5.38;1.65;;;17.50;61.20;;;;;;5075101;28;20071;-82
2022/05/29 11:03:26;;;;;;;3.08;1.33;;;17.80;63.00;;;;;;5098338;28;20024;-82
2022/05/29 11:06:19;;;;;;;3.70;1.70;;;17.80;62.90;;;;;;5093164;28;20021;-81
2022/05/29 11:09:04;;;;;;;5.78;1.40;;;18.40;61.40;;;;;;5082085;28;20077;-84
2022/05/29 11:12:07;;;;;;;6.22;1.63;;;18.40;61.70;;;;;;5112549;28;20032;-85
2022/05/29 11:14:42;;;;;;;5.25;2.10;;;18.70;61.00;;;;;;5097620;28;20468;-83
2022/05/29 11:17:26;;;;;;;2.83;1.20;;;18.50;60.40;;;;;;5082765;28;20031;-84
2022/05/29 11:20:18;;;;;;;7.70;2.17;;;18.20;60.10;;;;;;5081768;28;20023;-83
2022/05/29 11:23:17;;;;;;;4.05;1.63;;;18.20;60.70;;;;;;5097592;28;20040;-83
2022/05/29 11:25:59;;;;;;;3.55;1.50;;;18.10;60.60;;;;;;5098008;28;20476;-83
2022/05/29 11:28:36;;;;;;;3.33;1.40;;;17.90;59.70;;;;;;5075163;28;20025;-85
2022/05/29 11:31:22;;;;;;;5.22;1.13;;;18.00;60.20;;;;;;5087435;28;20028;-85
2022/05/29 11:34:41;;;;;;;4.55;1.42;;;18.20;59.40;;;;;;5086588;28;20087;-83
2022/05/29 11:37:51;;;;;;;4.30;1.52;;;18.30;56.60;;;;;;5033105;28;20049;-84
2022/05/29 11:40:18;;;;;;;3.28;1.40;;;17.70;56.80;;;;;;5040419;28;20025;-82
2022/05/29 11:42:58;;;;;;;3.38;1.48;;;17.60;57.00;;;;;;5092529;28;20024;-83
2022/05/29 11:51:34;;;;;;;3.42;1.25;;;18.20;55.00;;;;;;5096389;28;20061;-81
2022/05/29 11:54:14;;;;;;;4.72;1.30;;;18.60;55.30;;;;;;5081868;28;20025;-84
2022/05/29 11:56:59;;;;;;;2.30;1.25;;;18.70;55.40;;;;;;5074048;28;20050;-85
2022/05/29 11:59:51;;;;;;;3.70;1.10;;;18.80;54.40;;;;;;5074821;28;20044;-83
2022/05/29 12:02:29;;;;;;;3.47;1.38;;;18.60;53.80;;;;;;5069023;28;20024;-83
2022/05/29 12:05:20;;;;;;;2.72;1.63;;;18.20;54.70;;;;;;5079685;28;20028;-83
2022/05/29 12:07:53;;;;;;;5.18;1.60;;;17.80;54.20;;;;;;5070759;28;20059;-83
2022/05/29 12:10:24;;;;;;;7.32;3.70;;;18.30;53.10;;;;;;5089327;28;20050;-84
2022/05/29 12:13:01;;;;;;;4.20;1.42;;;18.30;52.70;;;;;;5070276;28;20047;-81
2022/05/29 12:15:30;;;;;;;4.03;1.45;;;18.20;53.40;;;;;;5069644;28;20024;-82
2022/05/29 12:18:02;;;;;;;13.32;5.15;;;18.10;53.90;;;;;;5075275;28;20062;-83
2022/05/29 12:20:35;;;;;;;10.45;4.45;;;19.70;54.10;;;;;;5092024;28;20028;-81
2022/05/29 12:23:26;;;;;;;3.67;1.70;;;19.10;53.30;;;;;;5078312;28;20035;-84
2022/05/29 12:26:06;;;;;;;3.30;1.63;;;18.40;52.00;;;;;;5095952;28;20024;-84
2022/05/29 12:29:03;;;;;;;2.58;1.60;;;18.90;51.30;;;;;;5080173;28;20031;-84
2022/05/29 12:31:43;;;;;;;4.15;1.60;;;19.00;51.30;;;;;;5094390;28;20088;-83
2022/05/29 12:34:18;;;;;;;3.25;1.42;;;19.30;50.90;;;;;;5092899;28;20091;-82
2022/05/29 12:37:16;;;;;;;3.17;1.40;;;19.20;51.40;;;;;;5094889;28;20096;-82
2022/05/29 12:40:13;;;;;;;9.40;4.05;;;19.20;52.00;;;;;;5077217;28;20481;-84
2022/05/29 12:42:52;;;;;;;22.80;9.10;;;19.30;52.40;;;;;;5094613;28;20035;-83
2022/05/29 12:45:21;;;;;;;7.32;2.90;;;19.20;52.60;;;;;;5079319;28;20017;-83
2022/05/29 12:47:53;;;;;;;2.30;1.40;;;19.50;53.00;;;;;;5077791;28;20020;-85
2022/05/29 12:50:32;;;;;;;2.58;1.40;;;18.80;52.30;;;;;;5104090;28;20274;-85
2022/05/29 12:53:21;;;;;;;5.03;2.10;;;18.80;52.20;;;;;;5096761;28;20027;-84
2022/05/29 12:56:11;;;;;;;4.43;1.98;;;18.60;52.50;;;;;;5095393;28;20103;-83
2022/05/29 12:59:11;;;;;;;14.00;5.80;;;18.80;52.30;;;;;;5075275;28;20033;-82
2022/05/29 13:01:58;;;;;;;4.07;1.75;;;19.00;53.40;;;;;;5068633;28;20095;-83
2022/05/29 13:04:47;;;;;;;2.63;1.52;;;18.80;52.10;;;;;;5071407;28;20044;-84
2022/05/29 13:07:25;;;;;;;3.20;2.00;;;18.70;52.50;;;;;;5071100;28;20028;-80
2022/05/29 13:10:03;;;;;;;4.72;2.13;;;18.70;52.30;;;;;;5081834;28;20023;-81
2022/05/29 13:12:40;;;;;;;3.10;1.63;;;19.10;50.70;;;;;;5092578;28;20024;-82
2022/05/29 13:15:09;;;;;;;5.70;1.75;;;19.10;51.10;;;;;;5092762;28;20070;-81
2022/05/29 13:17:36;;;;;;;3.88;2.10;;;19.00;52.10;;;;;;5090585;28;20063;-84
2022/05/29 13:20:08;;;;;;;3.25;1.90;;;19.10;52.90;;;;;;5075655;28;20024;-82
2022/05/29 13:22:51;;;;;;;4.18;2.03;;;19.10;53.30;;;;;;5076750;28;20050;-84
2022/05/29 13:25:20;;;;;;;4.43;1.70;;;19.40;52.50;;;;;;5090713;28;20080;-81
2022/05/29 13:27:46;;;;;;;4.37;2.10;;;19.60;51.80;;;;;;5080297;28;20032;-82
2022/05/29 13:30:39;;;;;;;5.30;1.90;;;19.80;51.70;;;;;;5072039;28;20024;-82
2022/05/29 13:33:29;;;;;;;3.03;1.73;;;20.00;51.70;;;;;;5097395;28;20024;-82
2022/05/29 13:35:56;;;;;;;3.83;1.85;;;20.10;52.10;;;;;;5069431;28;20025;-83
2022/05/29 13:38:44;;;;;;;5.60;2.00;;;20.10;52.50;;;;;;5076082;28;20047;-83
2022/05/29 13:41:31;;;;;;;5.00;1.98;;;19.90;53.20;;;;;;5076107;28;20020;-82
2022/05/29 13:44:17;;;;;;;3.20;2.25;;;19.90;52.90;;;;;;5088622;28;20017;-82
2022/05/29 13:46:43;;;;;;;5.97;2.70;;;19.60;53.30;;;;;;5085976;28;20081;-82
2022/05/29 13:49:22;;;;;;;5.82;2.30;;;20.90;54.70;;;;;;5075311;28;20033;-85
2022/05/29 13:51:49;;;;;;;3.60;2.20;;;19.10;53.40;;;;;;5078667;28;20127;-82
2022/05/29 13:54:27;;;;;;;4.20;2.58;;;19.10;53.80;;;;;;5097432;28;20023;-82
2022/05/29 13:57:07;;;;;;;19.70;9.65;;;18.80;54.60;;;;;;5103338;28;20036;-84
2022/05/29 14:05:47;;;;;;;6.70;2.35;;;18.40;56.30;;;;;;5104472;28;20107;-84
2022/05/29 14:08:19;;;;;;;6.13;2.78;;;18.20;55.90;;;;;;5093430;28;20009;-85